createdAt,value
2023-01-02T00:01:34.648Z,103.47
2023-01-02T00:04:03.107Z,99.78
2023-01-02T00:06:35.080Z,102.18
2023-01-02T00:09:08.115Z,95.20
2023-01-02T00:11:36.483Z,98.90
2023-01-02T00:14:04.799Z,96.32
2023-01-02T00:16:34.580Z,98.22
2023-01-02T00:19:02.687Z,94.00
2023-01-02T00:21:31.033Z,99.68
2023-01-02T00:23:59.295Z,90.30
2023-01-02T00:26:27.562Z,90.32
2023-01-02T00:28:55.782Z,80.18
2023-01-02T00:31:24.058Z,86.07
2023-01-02T00:33:53.910Z,90.53
2023-01-02T00:36:22.381Z,101.25
2023-01-02T00:38:50.561Z,94.47
2023-01-02T00:41:19.035Z,98.55
2023-01-02T00:43:47.283Z,95.93
2023-01-02T00:46:15.997Z,104.65
2023-01-02T00:48:44.412Z,93.03
2023-01-02T00:51:14.095Z,99.03
2023-01-02T00:53:42.356Z,102.60
2023-01-02T00:56:10.610Z,100.05
2023-01-02T00:58:38.882Z,101.35
2023-01-02T01:01:07.285Z,99.68
2023-01-02T01:03:35.739Z,103.53
2023-01-02T01:06:08.840Z,103.25
2023-01-02T01:08:39.734Z,105.00
2023-01-02T01:11:09.642Z,106.88
2023-01-02T01:13:38.410Z,107.97
2023-01-02T01:16:08.034Z,107.82
2023-01-02T01:18:36.685Z,102.80
2023-01-02T01:21:08.184Z,108.25
2023-01-02T01:23:36.391Z,109.97
2023-01-02T01:26:08.016Z,110.22
2023-01-02T01:28:36.518Z,107.07
2023-01-02T01:31:05.119Z,103.03
2023-01-02T01:33:33.813Z,100.13
2023-01-02T01:36:03.165Z,107.30
2023-01-02T01:38:31.938Z,94.35
2023-01-02T01:41:00.327Z,105.78
2023-01-02T01:43:53.062Z,98.90
2023-01-02T01:48:56.538Z,107.10
2023-01-02T01:51:28.328Z,113.20
2023-01-02T01:54:06.770Z,107.38
2023-01-02T01:56:37.348Z,101.63
2023-01-02T01:59:07.024Z,105.72
2023-01-02T02:01:35.325Z,109.03
2023-01-02T02:04:03.832Z,103.90
2023-01-02T02:06:31.973Z,107.30
2023-01-02T02:09:03.695Z,111.78
2023-01-02T02:11:32.697Z,115.00
2023-01-02T02:14:01.906Z,105.78
2023-01-02T02:16:42.306Z,120.05
2023-01-02T02:19:43.113Z,114.47
2023-01-02T02:22:29.727Z,116.80
2023-01-02T02:25:48.400Z,128.23
2023-01-02T02:28:46.144Z,127.35
2023-01-02T02:31:21.858Z,123.13
2023-01-02T02:33:57.024Z,121.93
2023-01-02T02:36:34.140Z,130.95
2023-01-02T02:39:12.325Z,118.30
2023-01-02T02:41:48.446Z,124.72
2023-01-02T02:44:28.369Z,126.88
2023-01-02T02:47:03.322Z,130.18
2023-01-02T02:49:43.180Z,138.25
2023-01-02T02:52:18.198Z,135.13
2023-01-02T02:54:53.677Z,135.25
2023-01-02T02:57:23.591Z,132.85
2023-01-02T02:59:52.265Z,133.68
2023-01-02T03:02:22.166Z,137.05
2023-01-02T03:04:54.510Z,138.20
2023-01-02T03:07:28.149Z,136.75
2023-01-02T03:10:07.137Z,127.10
2023-01-02T03:12:41.904Z,133.55
2023-01-02T03:15:17.370Z,126.82
2023-01-02T03:18:00.221Z,121.85
2023-01-02T03:20:36.237Z,129.23
2023-01-02T03:23:09.072Z,118.72
2023-01-02T03:25:39.320Z,120.28
2023-01-02T03:28:11.372Z,122.32
2023-01-02T03:30:42.332Z,122.88
2023-01-02T03:33:15.204Z,128.10
2023-01-02T03:35:47.010Z,115.95
2023-01-02T03:38:17.465Z,116.22
2023-01-02T03:40:49.987Z,126.00
2023-01-02T03:43:22.438Z,124.05
2023-01-02T03:46:00.138Z,116.88
2023-01-02T03:48:39.158Z,123.82
2023-01-02T03:51:08.862Z,122.70
2023-01-02T03:53:39.230Z,126.25
2023-01-02T03:56:16.939Z,129.77
2023-01-02T03:58:50.560Z,128.25
2023-01-02T04:01:29.167Z,122.60
2023-01-02T04:04:04.783Z,135.48
2023-01-02T04:06:38.355Z,140.48
2023-01-02T04:09:10.563Z,144.60
2023-01-02T04:11:42.059Z,136.35
2023-01-02T04:14:18.116Z,133.10
2023-01-02T04:16:49.411Z,111.68
2023-01-02T04:19:22.621Z,85.20
2023-01-02T04:21:53.602Z,68.78
2023-01-02T04:24:28.521Z,48.83
2023-01-02T04:27:01.651Z,41.75
2023-01-02T04:29:30.769Z,39.00
2023-01-02T04:32:05.098Z,34.45
2023-01-02T04:34:36.785Z,28.88
2023-01-02T04:37:05.239Z,30.42
2023-01-02T04:39:35.697Z,29.55
2023-01-02T04:42:03.960Z,29.92
2023-01-02T04:44:32.148Z,29.70
2023-01-02T04:47:00.660Z,26.85
2023-01-02T04:49:30.204Z,31.15
2023-01-02T04:52:00.008Z,26.23
2023-01-02T04:54:28.074Z,31.90
2023-01-02T04:56:56.113Z,33.75
2023-01-02T04:59:24.093Z,38.13
2023-01-02T05:01:52.615Z,33.60
2023-01-02T05:04:21.213Z,34.13
2023-01-02T05:06:49.557Z,33.08
2023-01-02T05:09:19.466Z,35.00
2023-01-02T05:11:47.665Z,37.38
2023-01-02T05:14:15.646Z,43.05
2023-01-02T05:16:43.648Z,44.35
2023-01-02T05:19:13.272Z,51.25
2023-01-02T05:21:58.672Z,43.65
2023-01-02T05:24:28.927Z,54.28
2023-01-02T05:26:57.389Z,53.08
2023-01-02T05:29:25.738Z,54.92
2023-01-02T05:31:54.016Z,54.28
2023-01-02T05:34:22.371Z,61.85
2023-01-02T05:36:50.653Z,64.47
2023-01-02T05:39:18.882Z,54.95
2023-01-02T05:41:48.505Z,65.15
2023-01-02T05:44:16.640Z,69.25
2023-01-02T05:46:45.073Z,62.90
2023-01-02T05:49:14.702Z,58.33
2023-01-02T05:51:42.865Z,62.78
2023-01-02T05:54:11.507Z,57.20
2023-01-02T05:56:39.692Z,56.08
2023-01-02T05:59:09.768Z,58.40
2023-01-02T06:01:38.358Z,54.00
2023-01-02T06:04:06.730Z,46.45
2023-01-02T06:06:37.505Z,44.97
2023-01-02T06:09:06.723Z,46.20
2023-01-02T06:11:35.376Z,43.63
2023-01-02T06:14:03.679Z,41.08
2023-01-02T06:16:33.310Z,41.95
2023-01-02T06:19:01.763Z,44.08
2023-01-02T06:21:30.211Z,45.05
2023-01-02T06:23:59.935Z,45.03
2023-01-02T06:26:34.559Z,49.65
2023-01-02T06:29:04.123Z,54.25
2023-01-02T06:31:34.313Z,50.72
2023-01-02T06:34:03.953Z,53.67
2023-01-02T06:36:34.057Z,60.92
2023-01-02T06:39:02.495Z,60.63
2023-01-02T06:41:30.807Z,61.63
2023-01-02T06:43:58.994Z,60.75
2023-01-02T06:46:27.201Z,60.53
2023-01-02T06:48:57.023Z,72.72
2023-01-02T06:51:25.900Z,79.93
2023-01-02T06:53:54.061Z,74.88
2023-01-02T06:56:22.399Z,81.47
2023-01-02T06:58:50.503Z,72.70
2023-01-02T07:01:21.963Z,71.07
2023-01-02T07:03:50.400Z,69.00
2023-01-02T07:06:22.977Z,66.88
2023-01-02T07:08:51.069Z,72.85
2023-01-02T07:11:20.479Z,76.47
2023-01-02T07:13:50.338Z,79.47
2023-01-02T07:16:20.579Z,81.15
2023-01-02T07:18:48.965Z,77.43
2023-01-02T07:21:18.132Z,81.18
2023-01-02T07:23:48.149Z,76.97
2023-01-02T07:26:16.921Z,75.22
2023-01-02T07:28:45.298Z,78.38
2023-01-02T07:31:16.020Z,80.82
2023-01-02T07:33:44.673Z,71.07
2023-01-02T07:36:14.583Z,75.80
2023-01-02T07:38:43.013Z,65.85
2023-01-02T07:41:16.943Z,62.05
2023-01-02T07:43:46.307Z,58.88
2023-01-02T07:46:15.649Z,59.72
2023-01-02T07:48:43.788Z,58.55
2023-01-02T07:51:12.351Z,61.65
2023-01-02T07:53:41.629Z,60.22
2023-01-02T07:56:10.150Z,58.47
2023-01-02T07:58:39.691Z,54.22
2023-01-02T08:01:09.144Z,49.67
2023-01-02T08:03:37.629Z,52.25
2023-01-02T08:06:07.029Z,50.63
2023-01-02T08:08:35.226Z,49.75
2023-01-02T08:11:06.453Z,46.80
2023-01-02T08:13:34.932Z,49.88
2023-01-02T08:16:07.592Z,44.35
2023-01-02T08:18:36.120Z,45.30
2023-01-02T08:21:05.643Z,42.60
2023-01-02T08:23:34.501Z,48.72
2023-01-02T08:26:04.326Z,49.90
2023-01-02T08:28:33.682Z,50.20
2023-01-02T08:31:02.101Z,50.22
2023-01-02T08:33:31.760Z,44.13
2023-01-02T08:36:00.281Z,49.53
2023-01-02T08:38:28.497Z,48.58
2023-01-02T08:40:59.428Z,56.13
2023-01-02T08:43:27.967Z,44.65
2023-01-02T08:45:57.135Z,53.08
2023-01-02T08:48:25.699Z,48.60
2023-01-02T08:50:55.323Z,45.22
2023-01-02T08:53:23.556Z,46.80
2023-01-02T08:55:51.715Z,47.50
2023-01-02T08:58:19.965Z,49.38
2023-01-02T09:00:48.180Z,42.20
2023-01-02T09:03:16.451Z,42.20
2023-01-02T09:05:44.439Z,46.90
2023-01-02T09:08:13.782Z,47.85
2023-01-02T09:10:41.858Z,53.83
2023-01-02T09:13:09.847Z,59.53
2023-01-02T09:15:37.845Z,55.05
2023-01-02T09:18:05.939Z,53.70
2023-01-02T09:20:34.258Z,52.78
2023-01-02T09:23:02.191Z,55.00
2023-01-02T09:25:31.542Z,54.22
2023-01-02T09:27:59.525Z,53.75
2023-01-02T09:30:27.529Z,53.50
2023-01-02T09:32:55.719Z,47.47
2023-01-02T09:35:23.685Z,43.33
2023-01-02T09:37:51.651Z,47.50
2023-01-02T09:40:20.053Z,48.22
2023-01-02T09:42:52.938Z,51.38
2023-01-02T09:45:21.222Z,57.30
2023-01-02T09:47:50.183Z,52.65
2023-01-02T09:50:24.747Z,55.25
2023-01-02T09:52:56.457Z,63.20
2023-01-02T09:55:36.649Z,61.05
2023-01-02T09:58:14.725Z,63.75
2023-01-02T10:00:45.686Z,67.10
2023-01-02T10:03:25.011Z,62.10
2023-01-02T10:06:11.203Z,58.90
2023-01-02T10:08:49.108Z,41.70
2023-01-02T10:11:38.688Z,43.72
2023-01-02T10:14:19.891Z,46.60
2023-01-02T10:16:51.889Z,52.67
2023-01-02T10:19:25.074Z,48.58
2023-01-02T10:22:00.133Z,45.30
2023-01-02T10:24:39.180Z,44.80
2023-01-02T10:27:12.897Z,43.35
2023-01-02T10:29:47.086Z,44.58
2023-01-02T10:32:18.648Z,45.65
2023-01-02T10:34:55.661Z,44.63
2023-01-02T10:37:23.670Z,47.22
2023-01-02T10:39:52.420Z,46.72
2023-01-02T10:42:23.666Z,53.45
2023-01-02T10:44:53.701Z,51.03
2023-01-02T10:47:28.578Z,54.15
2023-01-02T10:49:58.504Z,59.33
2023-01-02T10:52:30.553Z,62.88
2023-01-02T10:55:00.633Z,61.60
2023-01-02T10:57:41.257Z,54.50
2023-01-02T11:00:28.895Z,51.53
2023-01-02T11:02:59.460Z,54.35
2023-01-02T11:05:29.914Z,52.30
2023-01-02T11:07:58.467Z,57.92
2023-01-02T11:10:29.257Z,56.78
2023-01-02T11:12:57.304Z,47.17
2023-01-02T11:15:30.909Z,51.50
2023-01-02T11:17:59.930Z,55.40
2023-01-02T11:20:30.522Z,61.20
2023-01-02T11:23:02.562Z,65.43
2023-01-02T11:25:36.972Z,57.30
2023-01-02T11:28:05.461Z,43.60
2023-01-02T11:30:44.715Z,38.20
2023-01-02T11:33:22.363Z,40.17
2023-01-02T11:35:52.950Z,43.05
2023-01-02T11:38:29.333Z,34.65
2023-01-02T11:41:01.359Z,31.75
2023-01-02T11:43:49.757Z,25.25
2023-01-02T11:46:35.776Z,24.48
2023-01-02T11:49:06.865Z,30.73
2023-01-02T11:51:37.955Z,27.27
2023-01-02T11:54:13.782Z,36.00
2023-01-02T11:56:44.702Z,38.78
2023-01-02T11:59:18.534Z,38.25
2023-01-02T12:01:56.741Z,38.08
2023-01-02T12:04:25.407Z,40.13
2023-01-02T12:07:08.267Z,39.63
2023-01-02T12:09:46.886Z,42.28
2023-01-02T12:12:47.290Z,40.35
2023-01-02T12:15:40.712Z,45.67
2023-01-02T12:18:23.682Z,37.88
2023-01-02T12:21:01.285Z,39.17
2023-01-02T12:23:42.651Z,37.95
2023-01-02T12:26:14.546Z,37.53
2023-01-02T12:29:07.573Z,41.72
2023-01-02T12:31:54.834Z,40.33
2023-01-02T12:34:37.396Z,42.83
2023-01-02T12:37:18.794Z,47.10
2023-01-02T12:40:01.954Z,51.58
2023-01-02T12:42:47.954Z,52.25
2023-01-02T12:45:27.685Z,39.33
2023-01-02T12:48:11.092Z,44.47
2023-01-02T12:51:15.066Z,51.63
2023-01-02T12:54:20.158Z,53.95
2023-01-02T12:56:57.577Z,53.42
2023-01-02T12:59:42.291Z,50.28
2023-01-02T13:02:22.885Z,43.92
2023-01-02T13:04:56.354Z,46.70
2023-01-02T13:07:31.402Z,40.28
2023-01-02T13:10:04.240Z,32.75
2023-01-02T13:12:33.998Z,32.22
2023-01-02T13:15:08.670Z,30.85
2023-01-02T13:17:47.397Z,33.15
2023-01-02T13:20:27.256Z,32.17
2023-01-02T13:23:05.529Z,31.10
2023-01-02T13:25:41.162Z,33.90
2023-01-02T13:28:14.821Z,34.70
2023-01-02T13:31:26.519Z,34.95
2023-01-02T13:33:47.758Z,34.75
2023-01-02T13:36:21.495Z,37.72
2023-01-02T13:40:27.380Z,37.80
2023-01-02T13:42:59.739Z,35.58
2023-01-02T13:48:01.619Z,39.30
2023-01-02T13:50:32.203Z,39.75
2023-01-02T13:53:05.432Z,36.33
2023-01-02T13:55:36.600Z,45.55
2023-01-02T13:58:29.060Z,41.30
2023-01-02T14:00:58.389Z,42.90
2023-01-02T14:03:39.602Z,48.95
2023-01-02T14:06:30.252Z,35.95
2023-01-02T14:09:14.450Z,38.10
2023-01-02T14:11:56.312Z,33.53
2023-01-02T14:14:34.971Z,35.10
2023-01-02T14:17:13.467Z,33.25
2023-01-02T14:19:41.917Z,37.25
2023-01-02T14:22:14.441Z,45.70
2023-01-02T14:24:47.028Z,47.28
2023-01-02T14:27:24.090Z,50.55
2023-01-02T14:29:56.277Z,46.53
2023-01-02T14:32:38.064Z,45.30
2023-01-02T14:35:08.404Z,47.63
2023-01-02T14:37:41.221Z,51.83
2023-01-02T14:40:33.779Z,53.97
2023-01-02T14:43:22.434Z,52.30
2023-01-02T14:45:52.669Z,52.42
2023-01-02T14:48:31.222Z,56.83
2023-01-02T14:51:04.673Z,49.97
2023-01-02T14:53:36.961Z,54.75
2023-01-02T14:56:13.860Z,45.20
2023-01-02T14:58:44.131Z,49.47
2023-01-02T15:01:43.235Z,47.08
2023-01-02T15:04:18.120Z,51.25
2023-01-02T15:06:50.233Z,37.20
2023-01-02T15:09:29.391Z,34.75
2023-01-02T15:12:18.493Z,34.35
2023-01-02T15:14:47.092Z,29.35
2023-01-02T15:17:20.035Z,26.00
2023-01-02T15:19:50.429Z,23.33
2023-01-02T15:22:21.298Z,27.52
2023-01-02T15:24:51.517Z,21.92
2023-01-02T15:27:26.050Z,19.48
2023-01-02T15:29:56.863Z,18.88
2023-01-02T15:32:26.802Z,20.50
2023-01-02T15:35:09.183Z,19.35
2023-01-02T15:37:43.162Z,18.23
2023-01-02T15:40:16.448Z,18.25
2023-01-02T15:43:04.275Z,16.95
2023-01-02T15:45:33.396Z,20.70
2023-01-02T15:48:01.798Z,20.23
2023-01-02T15:50:31.380Z,23.23
2023-01-02T15:53:02.830Z,20.30
2023-01-02T15:55:36.540Z,20.00
2023-01-02T15:58:24.866Z,21.58
2023-01-02T16:01:15.702Z,23.17
2023-01-02T16:04:04.014Z,25.02
2023-01-02T16:06:35.107Z,23.10
2023-01-02T16:09:05.675Z,24.73
2023-01-02T16:11:36.876Z,23.17
2023-01-02T16:14:20.962Z,20.90
2023-01-02T16:16:53.140Z,22.73
2023-01-02T16:19:26.324Z,21.63
2023-01-02T16:22:04.430Z,24.98
2023-01-02T16:24:35.921Z,32.97
2023-01-02T16:27:06.288Z,28.27
2023-01-02T16:29:41.820Z,27.13
2023-01-02T16:32:25.130Z,29.52
2023-01-02T16:35:01.265Z,24.45
2023-01-02T16:37:34.806Z,26.42
2023-01-02T16:41:00.427Z,28.00
2023-01-02T16:43:30.314Z,32.97
2023-01-02T16:46:00.954Z,30.80
2023-01-02T16:48:30.410Z,33.92
2023-01-02T16:51:00.000Z,29.92
2023-01-02T16:53:30.439Z,33.30
2023-01-02T16:55:59.267Z,36.83
2023-01-02T16:58:27.992Z,37.50
2023-01-02T17:00:57.533Z,37.92
2023-01-02T17:03:28.936Z,39.92
2023-01-02T17:06:02.141Z,38.47
2023-01-02T17:08:31.357Z,41.00
2023-01-02T17:10:59.909Z,40.13
2023-01-02T17:13:29.555Z,45.88
2023-01-02T17:15:58.290Z,41.58
2023-01-02T17:18:27.995Z,40.60
2023-01-02T17:20:56.236Z,45.88
2023-01-02T17:23:24.552Z,40.33
2023-01-02T17:25:52.900Z,44.15
2023-01-02T17:28:21.464Z,46.70
2023-01-02T17:30:50.197Z,43.38
2023-01-02T17:33:19.613Z,45.85
2023-01-02T17:35:50.980Z,45.00
2023-01-02T17:38:19.738Z,47.53
2023-01-02T17:40:47.971Z,46.45
2023-01-02T17:43:16.492Z,47.20
2023-01-02T17:45:44.672Z,48.05
2023-01-02T17:48:16.160Z,48.00
2023-01-02T17:50:51.067Z,50.63
2023-01-02T17:53:19.237Z,48.85
2023-01-02T17:55:52.194Z,47.35
2023-01-02T17:58:40.416Z,49.53
2023-01-02T18:01:08.725Z,52.40
2023-01-02T18:03:36.989Z,49.53
2023-01-02T18:06:07.701Z,52.53
2023-01-02T18:08:37.866Z,58.92
2023-01-02T18:11:07.530Z,62.53
2023-01-02T18:13:39.677Z,70.82
2023-01-02T18:16:14.446Z,80.95
2023-01-02T18:18:43.295Z,72.57
2023-01-02T18:21:15.805Z,74.82
2023-01-02T18:23:44.018Z,72.35
2023-01-02T18:26:13.756Z,76.25
2023-01-02T18:28:47.178Z,76.82
2023-01-02T18:31:19.249Z,66.13
2023-01-02T18:33:48.461Z,68.85
2023-01-02T18:36:21.934Z,67.10
2023-01-02T18:38:52.138Z,65.90
2023-01-02T18:41:23.244Z,66.50
2023-01-02T18:43:54.293Z,68.85
2023-01-02T18:46:24.167Z,71.15
2023-01-02T18:48:54.703Z,69.22
2023-01-02T18:51:25.550Z,76.90
2023-01-02T18:53:57.031Z,76.60
2023-01-02T18:56:27.590Z,75.03
2023-01-02T18:59:03.074Z,74.93
2023-01-02T19:01:35.042Z,76.00
2023-01-02T19:04:27.161Z,79.35
2023-01-02T19:07:01.000Z,74.90
2023-01-02T19:09:33.388Z,77.95
2023-01-02T19:14:56.732Z,80.03
2023-01-02T19:17:26.955Z,82.57
2023-01-02T19:19:56.321Z,80.05
2023-01-02T19:22:33.073Z,78.53
2023-01-02T19:25:07.755Z,74.78
2023-01-02T19:27:38.279Z,72.60
2023-01-02T19:30:09.403Z,73.03
2023-01-02T19:32:37.789Z,73.95
2023-01-02T19:35:45.080Z,65.90
2023-01-02T19:38:27.120Z,64.47
2023-01-02T19:40:55.467Z,67.50
2023-01-02T19:43:23.981Z,67.38
2023-01-02T19:45:52.994Z,69.75
2023-01-02T19:48:21.290Z,70.65
2023-01-02T19:50:49.368Z,61.38
2023-01-02T19:53:18.903Z,65.35
2023-01-02T19:55:46.957Z,69.53
2023-01-02T19:58:15.205Z,65.78
2023-01-02T20:00:43.528Z,64.55
2023-01-02T20:03:11.996Z,66.10
2023-01-02T20:05:40.263Z,68.72
2023-01-02T20:08:08.274Z,66.85
2023-01-02T20:10:37.717Z,65.32
2023-01-02T20:13:05.718Z,67.63
2023-01-02T20:15:33.819Z,70.93
2023-01-02T20:18:08.363Z,68.93
2023-01-02T20:20:36.811Z,67.75
2023-01-02T20:23:05.375Z,72.03
2023-01-02T20:25:33.378Z,71.35
2023-01-02T20:28:04.290Z,68.90
2023-01-02T20:30:32.314Z,69.75
2023-01-02T20:33:01.411Z,69.80
2023-01-02T20:35:29.649Z,71.40
2023-01-02T20:37:57.925Z,71.00
2023-01-02T20:40:26.269Z,74.93
2023-01-02T20:42:54.303Z,75.45
2023-01-02T20:45:23.658Z,75.60
2023-01-02T20:47:51.795Z,72.28
2023-01-02T20:50:19.774Z,72.35
2023-01-02T20:52:49.990Z,72.35
2023-01-02T20:55:21.676Z,70.65
2023-01-02T20:57:51.629Z,74.25
2023-01-02T21:00:22.844Z,76.45
2023-01-02T21:02:52.717Z,72.32
2023-01-02T21:05:21.277Z,72.32
2023-01-02T21:07:52.006Z,81.60
2023-01-02T21:10:20.468Z,80.32
2023-01-02T21:13:06.025Z,83.20
2023-01-02T21:15:46.406Z,85.78
2023-01-02T21:18:18.106Z,81.28
2023-01-02T21:20:48.231Z,81.72
2023-01-02T21:23:17.365Z,80.93
2023-01-02T21:25:46.081Z,81.22
2023-01-02T21:28:15.968Z,83.55
2023-01-02T21:30:45.899Z,84.70
2023-01-02T21:33:15.035Z,84.30
2023-01-02T21:35:46.090Z,85.32
2023-01-02T21:38:14.812Z,81.40
2023-01-02T21:40:43.120Z,82.97
2023-01-02T21:43:11.553Z,82.15
2023-01-02T21:45:39.908Z,85.65
2023-01-02T21:48:09.706Z,83.35
2023-01-02T21:50:37.854Z,82.00
2023-01-02T21:53:05.949Z,83.07
2023-01-02T21:55:34.051Z,83.50
2023-01-02T21:58:12.790Z,87.07
2023-01-02T22:00:41.792Z,86.47
2023-01-02T22:03:11.604Z,83.50
2023-01-02T22:05:40.042Z,83.30
2023-01-02T22:08:08.452Z,82.00
2023-01-02T22:10:36.466Z,83.38
2023-01-02T22:13:04.428Z,81.40
2023-01-02T22:15:32.401Z,82.13
2023-01-02T22:18:00.375Z,83.43
2023-01-02T22:20:29.765Z,86.22
2023-01-02T22:22:57.760Z,85.70
2023-01-02T22:25:25.722Z,86.63
2023-01-02T22:27:53.718Z,87.55
2023-01-02T22:30:29.330Z,86.80
2023-01-02T22:33:01.368Z,88.90
2023-01-02T22:35:30.879Z,91.05
2023-01-02T22:37:59.428Z,96.78
2023-01-02T22:40:28.393Z,97.60
2023-01-02T22:43:05.652Z,102.13
2023-01-02T22:45:42.038Z,97.15
2023-01-02T22:48:20.371Z,103.18
2023-01-02T22:50:52.823Z,103.38
2023-01-02T22:53:23.523Z,108.07
2023-01-02T22:55:51.972Z,110.40
2023-01-02T22:58:20.729Z,108.38
2023-01-02T23:00:52.225Z,108.07
2023-01-02T23:03:20.298Z,101.43
2023-01-02T23:05:49.655Z,99.93
2023-01-02T23:08:17.692Z,95.55
2023-01-02T23:10:45.673Z,99.43
2023-01-02T23:13:13.607Z,99.47
2023-01-02T23:16:01.728Z,96.85
2023-01-02T23:18:53.175Z,100.93
2023-01-02T23:21:27.232Z,101.75
2023-01-02T23:23:55.875Z,102.82
2023-01-02T23:26:27.143Z,106.30
2023-01-02T23:29:06.634Z,105.70
2023-01-02T23:31:37.110Z,107.20
2023-01-02T23:34:05.127Z,110.45
2023-01-02T23:36:34.802Z,109.35
2023-01-02T23:39:02.923Z,109.40
2023-01-02T23:41:30.874Z,113.43
2023-01-02T23:43:58.817Z,106.70
2023-01-02T23:46:26.979Z,106.13
2023-01-02T23:48:55.030Z,110.25
2023-01-02T23:51:23.073Z,101.25
2023-01-02T23:53:52.454Z,106.25
2023-01-02T23:56:22.596Z,104.35
2023-01-02T23:58:53.024Z,104.85
